sensor_id;sensor_type;location;lat;lon;timestamp;temperature;humidity
5834;DHT22;2943;48.012;10.968;2022-12-29T00:01:16;4.20;99.90
5834;DHT22;2943;48.012;10.968;2022-12-29T00:03:49;4.20;99.90
5834;DHT22;2943;48.012;10.968;2022-12-29T00:06:16;4.20;99.90
5834;DHT22;2943;48.012;10.968;2022-12-29T00:08:43;4.10;99.90
5834;DHT22;2943;48.012;10.968;2022-12-29T00:11:20;4.10;99.90
5834;DHT22;2943;48.012;10.968;2022-12-29T00:13:54;4.10;99.90
5834;DHT22;2943;48.012;10.968;2022-12-29T00:16:42;4.00;99.90
5834;DHT22;2943;48.012;10.968;2022-12-29T00:19:09;4.00;99.90
5834;DHT22;2943;48.012;10.968;2022-12-29T00:21:58;4.00;99.90
5834;DHT22;2943;48.012;10.968;2022-12-29T00:24:43;4.00;99.90
5834;DHT22;2943;48.012;10.968;2022-12-29T00:27:29;4.00;99.90
5834;DHT22;2943;48.012;10.968;2022-12-29T00:30:16;4.00;99.90
5834;DHT22;2943;48.012;10.968;2022-12-29T00:33:08;4.00;99.90
5834;DHT22;2943;48.012;10.968;2022-12-29T00:35:56;4.00;99.90
5834;DHT22;2943;48.012;10.968;2022-12-29T00:38:24;4.00;99.90
5834;DHT22;2943;48.012;10.968;2022-12-29T00:41:09;4.00;99.90
5834;DHT22;2943;48.012;10.968;2022-12-29T00:43:54;4.00;99.90
5834;DHT22;2943;48.012;10.968;2022-12-29T00:46:35;4.00;99.90
5834;DHT22;2943;48.012;10.968;2022-12-29T00:49:05;4.00;99.90
5834;DHT22;2943;48.012;10.968;2022-12-29T00:51:49;4.00;99.90
5834;DHT22;2943;48.012;10.968;2022-12-29T00:54:17;3.90;99.90
5834;DHT22;2943;48.012;10.968;2022-12-29T00:56:45;3.90;99.90
5834;DHT22;2943;48.012;10.968;2022-12-29T00:59:13;3.90;99.90
5834;DHT22;2943;48.012;10.968;2022-12-29T01:01:40;3.90;99.90
5834;DHT22;2943;48.012;10.968;2022-12-29T01:04:12;4.00;99.90
5834;DHT22;2943;48.012;10.968;2022-12-29T01:06:40;4.00;99.90
5834;DHT22;2943;48.012;10.968;2022-12-29T01:09:07;4.00;99.90
5834;DHT22;2943;48.012;10.968;2022-12-29T01:11:52;4.00;99.90
5834;DHT22;2943;48.012;10.968;2022-12-29T01:14:19;4.00;99.90
5834;DHT22;2943;48.012;10.968;2022-12-29T01:16:47;4.00;99.90
5834;DHT22;2943;48.012;10.968;2022-12-29T01:19:25;4.00;99.90
5834;DHT22;2943;48.012;10.968;2022-12-29T01:21:52;4.00;99.90
5834;DHT22;2943;48.012;10.968;2022-12-29T01:24:19;4.00;99.90
5834;DHT22;2943;48.012;10.968;2022-12-29T01:26:47;4.00;99.90
5834;DHT22;2943;48.012;10.968;2022-12-29T01:29:14;4.00;99.90
5834;DHT22;2943;48.012;10.968;2022-12-29T01:31:41;4.00;99.90
5834;DHT22;2943;48.012;10.968;2022-12-29T01:34:08;4.00;99.90
5834;DHT22;2943;48.012;10.968;2022-12-29T01:36:37;4.00;99.90
5834;DHT22;2943;48.012;10.968;2022-12-29T01:39:04;4.10;99.90
5834;DHT22;2943;48.012;10.968;2022-12-29T01:41:32;4.00;99.90
5834;DHT22;2943;48.012;10.968;2022-12-29T01:43:59;4.10;99.90
5834;DHT22;2943;48.012;10.968;2022-12-29T01:46:30;4.10;99.90
5834;DHT22;2943;48.012;10.968;2022-12-29T01:49:04;4.10;99.90
5834;DHT22;2943;48.012;10.968;2022-12-29T01:51:35;4.10;99.90
5834;DHT22;2943;48.012;10.968;2022-12-29T01:54:15;4.10;99.90
5834;DHT22;2943;48.012;10.968;2022-12-29T01:56:44;4.10;99.90
5834;DHT22;2943;48.012;10.968;2022-12-29T01:59:16;4.20;99.90
5834;DHT22;2943;48.012;10.968;2022-12-29T02:01:45;4.20;99.90
5834;DHT22;2943;48.012;10.968;2022-12-29T02:04:12;4.30;99.90
5834;DHT22;2943;48.012;10.968;2022-12-29T02:06:45;4.30;99.90
5834;DHT22;2943;48.012;10.968;2022-12-29T02:09:15;4.20;99.90
5834;DHT22;2943;48.012;10.968;2022-12-29T02:11:42;4.20;99.90
5834;DHT22;2943;48.012;10.968;2022-12-29T02:14:10;4.30;99.90
5834;DHT22;2943;48.012;10.968;2022-12-29T02:16:59;4.30;99.90
5834;DHT22;2943;48.012;10.968;2022-12-29T02:19:59;4.30;99.90
5834;DHT22;2943;48.012;10.968;2022-12-29T02:22:35;4.50;99.90
5834;DHT22;2943;48.012;10.968;2022-12-29T02:25:30;4.60;99.90
5834;DHT22;2943;48.012;10.968;2022-12-29T02:28:48;4.60;99.90
5834;DHT22;2943;48.012;10.968;2022-12-29T02:31:26;4.80;99.90
5834;DHT22;2943;48.012;10.968;2022-12-29T02:34:06;4.80;99.90
5834;DHT22;2943;48.012;10.968;2022-12-29T02:36:42;5.00;99.90
5834;DHT22;2943;48.012;10.968;2022-12-29T02:39:15;5.00;99.90
5834;DHT22;2943;48.012;10.968;2022-12-29T02:41:52;5.10;99.90
5834;DHT22;2943;48.012;10.968;2022-12-29T02:44:25;5.10;99.90
5834;DHT22;2943;48.012;10.968;2022-12-29T02:47:01;5.20;99.90
5834;DHT22;2943;48.012;10.968;2022-12-29T02:49:37;5.30;99.90
5834;DHT22;2943;48.012;10.968;2022-12-29T02:52:08;5.30;99.90
5834;DHT22;2943;48.012;10.968;2022-12-29T02:54:37;5.30;99.90
5834;DHT22;2943;48.012;10.968;2022-12-29T02:57:12;5.40;99.90
5834;DHT22;2943;48.012;10.968;2022-12-29T02:59:41;5.40;99.90
5834;DHT22;2943;48.012;10.968;2022-12-29T03:02:38;5.50;99.90
5834;DHT22;2943;48.012;10.968;2022-12-29T03:05:15;5.50;99.90
5834;DHT22;2943;48.012;10.968;2022-12-29T03:07:52;5.50;99.90
5834;DHT22;2943;48.012;10.968;2022-12-29T03:10:30;5.50;99.90
5834;DHT22;2943;48.012;10.968;2022-12-29T03:13:04;5.60;99.90
5834;DHT22;2943;48.012;10.968;2022-12-29T03:15:58;5.50;99.90
5834;DHT22;2943;48.012;10.968;2022-12-29T03:18:38;5.60;99.90
5834;DHT22;2943;48.012;10.968;2022-12-29T03:21:11;5.60;99.90
5834;DHT22;2943;48.012;10.968;2022-12-29T03:23:41;5.60;99.90
5834;DHT22;2943;48.012;10.968;2022-12-29T03:26:11;5.50;99.90
5834;DHT22;2943;48.012;10.968;2022-12-29T03:28:42;5.50;99.90
5834;DHT22;2943;48.012;10.968;2022-12-29T03:31:23;5.50;99.90
5834;DHT22;2943;48.012;10.968;2022-12-29T03:33:55;5.50;99.90
5834;DHT22;2943;48.012;10.968;2022-12-29T03:36:28;5.50;99.90
5834;DHT22;2943;48.012;10.968;2022-12-29T03:39:01;5.50;99.90
5834;DHT22;2943;48.012;10.968;2022-12-29T03:41:32;5.50;99.90
5834;DHT22;2943;48.012;10.968;2022-12-29T03:44:18;5.40;99.90
5834;DHT22;2943;48.012;10.968;2022-12-29T03:46:55;5.50;99.90
5834;DHT22;2943;48.012;10.968;2022-12-29T03:49:27;5.50;99.90
5834;DHT22;2943;48.012;10.968;2022-12-29T03:52:00;5.50;99.90
5834;DHT22;2943;48.012;10.968;2022-12-29T03:54:41;5.50;99.90
5834;DHT22;2943;48.012;10.968;2022-12-29T03:57:14;5.50;99.90
5834;DHT22;2943;48.012;10.968;2022-12-29T03:59:46;5.50;99.90
5834;DHT22;2943;48.012;10.968;2022-12-29T04:02:24;5.50;99.90
5834;DHT22;2943;48.012;10.968;2022-12-29T04:05:02;5.60;99.90
5834;DHT22;2943;48.012;10.968;2022-12-29T04:07:36;5.50;99.90
5834;DHT22;2943;48.012;10.968;2022-12-29T04:10:16;5.50;99.90
5834;DHT22;2943;48.012;10.968;2022-12-29T04:12:46;5.60;99.90
5834;DHT22;2943;48.012;10.968;2022-12-29T04:15:24;5.60;99.90
5834;DHT22;2943;48.012;10.968;2022-12-29T04:17:51;5.60;99.90
5834;DHT22;2943;48.012;10.968;2022-12-29T04:20:30;5.70;99.90
5834;DHT22;2943;48.012;10.968;2022-12-29T04:23:20;5.70;99.90
5834;DHT22;2943;48.012;10.968;2022-12-29T04:25:54;5.60;99.90
5834;DHT22;2943;48.012;10.968;2022-12-29T04:28:43;5.80;99.90
5834;DHT22;2943;48.012;10.968;2022-12-29T04:31:21;5.90;99.90
5834;DHT22;2943;48.012;10.968;2022-12-29T04:34:00;5.80;99.90
5834;DHT22;2943;48.012;10.968;2022-12-29T04:36:50;5.90;99.90
5834;DHT22;2943;48.012;10.968;2022-12-29T04:39:35;5.90;99.90
5834;DHT22;2943;48.012;10.968;2022-12-29T04:42:17;6.00;99.90
5834;DHT22;2943;48.012;10.968;2022-12-29T04:44:48;6.10;99.90
5834;DHT22;2943;48.012;10.968;2022-12-29T04:47:20;6.10;99.90
5834;DHT22;2943;48.012;10.968;2022-12-29T04:49:50;6.10;99.90
5834;DHT22;2943;48.012;10.968;2022-12-29T04:52:21;6.10;99.90
5834;DHT22;2943;48.012;10.968;2022-12-29T04:54:54;6.20;99.90
5834;DHT22;2943;48.012;10.968;2022-12-29T04:57:32;6.10;99.90
5834;DHT22;2943;48.012;10.968;2022-12-29T04:59:59;6.10;99.90
5834;DHT22;2943;48.012;10.968;2022-12-29T05:02:28;6.20;99.90
5834;DHT22;2943;48.012;10.968;2022-12-29T05:05:00;6.30;99.90
5834;DHT22;2943;48.012;10.968;2022-12-29T05:07:45;6.30;99.90
5834;DHT22;2943;48.012;10.968;2022-12-29T05:10:13;6.30;99.90
5834;DHT22;2943;48.012;10.968;2022-12-29T05:12:54;6.40;99.90
5834;DHT22;2943;48.012;10.968;2022-12-29T05:15:39;6.40;99.90
5834;DHT22;2943;48.012;10.968;2022-12-29T05:18:10;6.40;99.90
5834;DHT22;2943;48.012;10.968;2022-12-29T05:20:43;6.50;99.90
5834;DHT22;2943;48.012;10.968;2022-12-29T05:23:24;6.50;99.90
5834;DHT22;2943;48.012;10.968;2022-12-29T05:26:00;6.50;99.90
5834;DHT22;2943;48.012;10.968;2022-12-29T05:28:40;6.60;99.90
5834;DHT22;2943;48.012;10.968;2022-12-29T05:31:18;6.60;99.90
5834;DHT22;2943;48.012;10.968;2022-12-29T05:33:52;6.60;99.90
5834;DHT22;2943;48.012;10.968;2022-12-29T05:36:35;6.60;99.90
5834;DHT22;2943;48.012;10.968;2022-12-29T05:39:06;6.60;99.90
5834;DHT22;2943;48.012;10.968;2022-12-29T05:44:28;6.50;99.90
5834;DHT22;2943;48.012;10.968;2022-12-29T05:47:00;6.70;99.90
5834;DHT22;2943;48.012;10.968;2022-12-29T05:49:38;6.70;99.90
5834;DHT22;2943;48.012;10.968;2022-12-29T05:52:23;6.70;99.90
5834;DHT22;2943;48.012;10.968;2022-12-29T05:55:07;6.70;99.90
5834;DHT22;2943;48.012;10.968;2022-12-29T05:57:47;6.70;99.90
5834;DHT22;2943;48.012;10.968;2022-12-29T06:00:24;6.60;99.90
5834;DHT22;2943;48.012;10.968;2022-12-29T06:02:59;6.70;99.90
5834;DHT22;2943;48.012;10.968;2022-12-29T06:05:38;6.70;99.90
5834;DHT22;2943;48.012;10.968;2022-12-29T06:08:22;6.60;99.90
5834;DHT22;2943;48.012;10.968;2022-12-29T06:11:05;6.70;99.90
5834;DHT22;2943;48.012;10.968;2022-12-29T06:13:46;6.70;99.90
5834;DHT22;2943;48.012;10.968;2022-12-29T06:16:16;6.70;99.90
5834;DHT22;2943;48.012;10.968;2022-12-29T06:18:52;6.70;99.90
5834;DHT22;2943;48.012;10.968;2022-12-29T06:21:22;6.70;99.90
5834;DHT22;2943;48.012;10.968;2022-12-29T06:24:11;6.70;99.90
5834;DHT22;2943;48.012;10.968;2022-12-29T06:27:02;6.70;99.90
5834;DHT22;2943;48.012;10.968;2022-12-29T06:29:35;6.60;99.90
5834;DHT22;2943;48.012;10.968;2022-12-29T06:32:19;6.70;99.90
5834;DHT22;2943;48.012;10.968;2022-12-29T06:35:14;6.60;99.90
5834;DHT22;2943;48.012;10.968;2022-12-29T06:37:47;6.60;99.90
5834;DHT22;2943;48.012;10.968;2022-12-29T06:40:37;6.70;99.90
5834;DHT22;2943;48.012;10.968;2022-12-29T06:43:28;6.70;99.90
5834;DHT22;2943;48.012;10.968;2022-12-29T06:46:12;6.60;99.90
5834;DHT22;2943;48.012;10.968;2022-12-29T06:48:51;6.70;99.90
5834;DHT22;2943;48.012;10.968;2022-12-29T06:51:27;6.60;99.90
5834;DHT22;2943;48.012;10.968;2022-12-29T06:54:11;6.70;99.90
5834;DHT22;2943;48.012;10.968;2022-12-29T06:57:07;6.60;99.90
5834;DHT22;2943;48.012;10.968;2022-12-29T07:00:23;6.60;99.90
5834;DHT22;2943;48.012;10.968;2022-12-29T07:03:15;6.60;99.90
5834;DHT22;2943;48.012;10.968;2022-12-29T07:06:09;6.60;99.90
5834;DHT22;2943;48.012;10.968;2022-12-29T07:09:17;6.60;99.90
5834;DHT22;2943;48.012;10.968;2022-12-29T07:12:25;6.60;99.90
5834;DHT22;2943;48.012;10.968;2022-12-29T07:15:04;6.60;99.90
5834;DHT22;2943;48.012;10.968;2022-12-29T07:17:43;6.60;99.90
5834;DHT22;2943;48.012;10.968;2022-12-29T07:20:27;6.70;99.90
5834;DHT22;2943;48.012;10.968;2022-12-29T07:23:08;6.80;99.90
5834;DHT22;2943;48.012;10.968;2022-12-29T07:25:58;6.90;99.90
5834;DHT22;2943;48.012;10.968;2022-12-29T07:28:42;6.90;99.90
5834;DHT22;2943;48.012;10.968;2022-12-29T07:31:23;7.10;99.90
5834;DHT22;2943;48.012;10.968;2022-12-29T07:37:14;7.20;99.90
5834;DHT22;2943;48.012;10.968;2022-12-29T07:40:18;7.30;99.90
5834;DHT22;2943;48.012;10.968;2022-12-29T07:43:10;7.40;99.90
5834;DHT22;2943;48.012;10.968;2022-12-29T07:45:48;7.30;99.90
5834;DHT22;2943;48.012;10.968;2022-12-29T07:48:16;7.40;99.90
5834;DHT22;2943;48.012;10.968;2022-12-29T07:50:47;7.50;99.90
5834;DHT22;2943;48.012;10.968;2022-12-29T07:53:20;7.40;99.90
5834;DHT22;2943;48.012;10.968;2022-12-29T07:55:52;7.40;99.90
5834;DHT22;2943;48.012;10.968;2022-12-29T07:58:20;7.50;99.90
5834;DHT22;2943;48.012;10.968;2022-12-29T08:01:03;7.50;99.90
5834;DHT22;2943;48.012;10.968;2022-12-29T08:03:42;7.60;99.90
5834;DHT22;2943;48.012;10.968;2022-12-29T08:06:31;7.60;99.90
5834;DHT22;2943;48.012;10.968;2022-12-29T08:08:58;7.60;99.90
5834;DHT22;2943;48.012;10.968;2022-12-29T08:11:32;7.70;99.90
5834;DHT22;2943;48.012;10.968;2022-12-29T08:14:05;7.70;99.90
5834;DHT22;2943;48.012;10.968;2022-12-29T08:16:32;7.90;99.90
5834;DHT22;2943;48.012;10.968;2022-12-29T08:18:59;7.90;99.90
5834;DHT22;2943;48.012;10.968;2022-12-29T08:21:42;7.90;99.90
5834;DHT22;2943;48.012;10.968;2022-12-29T08:24:09;8.00;99.90
5834;DHT22;2943;48.012;10.968;2022-12-29T08:26:36;8.00;99.90
5834;DHT22;2943;48.012;10.968;2022-12-29T08:29:03;8.10;99.90
5834;DHT22;2943;48.012;10.968;2022-12-29T08:31:31;8.10;99.90
5834;DHT22;2943;48.012;10.968;2022-12-29T08:34:00;8.10;99.90
5834;DHT22;2943;48.012;10.968;2022-12-29T08:36:28;8.10;99.90
5834;DHT22;2943;48.012;10.968;2022-12-29T08:38:57;8.20;99.90
5834;DHT22;2943;48.012;10.968;2022-12-29T08:41:24;8.20;99.90
5834;DHT22;2943;48.012;10.968;2022-12-29T08:43:50;8.20;99.90
5834;DHT22;2943;48.012;10.968;2022-12-29T08:46:17;8.30;99.90
5834;DHT22;2943;48.012;10.968;2022-12-29T08:48:44;8.30;99.90
5834;DHT22;2943;48.012;10.968;2022-12-29T08:51:11;8.40;99.90
5834;DHT22;2943;48.012;10.968;2022-12-29T08:53:38;8.50;99.90
5834;DHT22;2943;48.012;10.968;2022-12-29T08:56:22;8.50;99.90
5834;DHT22;2943;48.012;10.968;2022-12-29T08:58:50;8.60;99.90
5834;DHT22;2943;48.012;10.968;2022-12-29T09:01:18;8.70;99.90
5834;DHT22;2943;48.012;10.968;2022-12-29T09:03:46;8.70;99.90
5834;DHT22;2943;48.012;10.968;2022-12-29T09:06:14;8.70;99.90
5834;DHT22;2943;48.012;10.968;2022-12-29T09:08:42;8.80;99.90
5834;DHT22;2943;48.012;10.968;2022-12-29T09:11:12;8.80;99.90
5834;DHT22;2943;48.012;10.968;2022-12-29T09:13:41;8.80;99.90
5834;DHT22;2943;48.012;10.968;2022-12-29T09:16:08;8.80;99.90
5834;DHT22;2943;48.012;10.968;2022-12-29T09:18:36;8.90;99.90
5834;DHT22;2943;48.012;10.968;2022-12-29T09:21:05;8.90;99.90
5834;DHT22;2943;48.012;10.968;2022-12-29T09:23:33;8.90;99.90
5834;DHT22;2943;48.012;10.968;2022-12-29T09:26:01;8.90;99.90
5834;DHT22;2943;48.012;10.968;2022-12-29T09:28:28;8.90;99.90
5834;DHT22;2943;48.012;10.968;2022-12-29T09:30:58;8.90;99.90
5834;DHT22;2943;48.012;10.968;2022-12-29T09:33:25;8.90;99.90
5834;DHT22;2943;48.012;10.968;2022-12-29T09:35:53;8.90;99.90
5834;DHT22;2943;48.012;10.968;2022-12-29T09:38:20;8.90;99.90
5834;DHT22;2943;48.012;10.968;2022-12-29T09:40:50;9.00;99.90
5834;DHT22;2943;48.012;10.968;2022-12-29T09:46:31;8.80;99.90
5834;DHT22;2943;48.012;10.968;2022-12-29T09:49:27;8.80;99.90
5834;DHT22;2943;48.012;10.968;2022-12-29T09:51:59;8.70;99.90
5834;DHT22;2943;48.012;10.968;2022-12-29T09:54:41;8.70;99.90
5834;DHT22;2943;48.012;10.968;2022-12-29T09:57:28;8.60;99.90
5834;DHT22;2943;48.012;10.968;2022-12-29T10:00:00;8.50;99.90
5834;DHT22;2943;48.012;10.968;2022-12-29T10:02:36;8.60;99.90
5834;DHT22;2943;48.012;10.968;2022-12-29T10:05:37;8.60;99.90
5834;DHT22;2943;48.012;10.968;2022-12-29T10:08:26;8.50;99.90
5834;DHT22;2943;48.012;10.968;2022-12-29T10:11:16;8.60;99.90
5834;DHT22;2943;48.012;10.968;2022-12-29T10:14:17;8.60;99.90
5834;DHT22;2943;48.012;10.968;2022-12-29T10:17:01;8.60;99.90
5834;DHT22;2943;48.012;10.968;2022-12-29T10:19:55;8.70;99.90
5834;DHT22;2943;48.012;10.968;2022-12-29T10:22:40;8.70;99.90
5834;DHT22;2943;48.012;10.968;2022-12-29T10:25:34;8.70;99.90
5834;DHT22;2943;48.012;10.968;2022-12-29T10:28:33;8.80;99.90
5834;DHT22;2943;48.012;10.968;2022-12-29T10:31:06;8.80;99.90
5834;DHT22;2943;48.012;10.968;2022-12-29T10:33:37;8.80;99.90
5834;DHT22;2943;48.012;10.968;2022-12-29T10:36:15;8.90;99.90
5834;DHT22;2943;48.012;10.968;2022-12-29T10:38:49;9.00;99.90
5834;DHT22;2943;48.012;10.968;2022-12-29T10:41:21;9.00;99.90
5834;DHT22;2943;48.012;10.968;2022-12-29T10:43:52;9.10;99.90
5834;DHT22;2943;48.012;10.968;2022-12-29T10:46:21;9.20;99.90
5834;DHT22;2943;48.012;10.968;2022-12-29T10:48:49;9.30;99.90
5834;DHT22;2943;48.012;10.968;2022-12-29T10:51:28;9.40;99.90
5834;DHT22;2943;48.012;10.968;2022-12-29T10:54:01;9.60;99.90
5834;DHT22;2943;48.012;10.968;2022-12-29T10:56:34;9.60;99.90
5834;DHT22;2943;48.012;10.968;2022-12-29T10:59:06;9.70;99.90
5834;DHT22;2943;48.012;10.968;2022-12-29T11:01:39;9.80;99.90
5834;DHT22;2943;48.012;10.968;2022-12-29T11:04:31;9.80;99.90
5834;DHT22;2943;48.012;10.968;2022-12-29T11:07:01;9.80;99.90
5834;DHT22;2943;48.012;10.968;2022-12-29T11:09:29;9.80;99.90
5834;DHT22;2943;48.012;10.968;2022-12-29T11:11:56;9.80;99.90
5834;DHT22;2943;48.012;10.968;2022-12-29T11:14:27;9.90;99.90
5834;DHT22;2943;48.012;10.968;2022-12-29T11:16:57;9.90;99.90
5834;DHT22;2943;48.012;10.968;2022-12-29T11:19:25;9.80;99.90
5834;DHT22;2943;48.012;10.968;2022-12-29T11:21:53;9.80;99.90
5834;DHT22;2943;48.012;10.968;2022-12-29T11:24:23;9.80;99.90
5834;DHT22;2943;48.012;10.968;2022-12-29T11:26:52;9.80;99.90
5834;DHT22;2943;48.012;10.968;2022-12-29T11:29:25;9.80;99.90
5834;DHT22;2943;48.012;10.968;2022-12-29T11:31:53;9.80;99.90
5834;DHT22;2943;48.012;10.968;2022-12-29T11:34:23;9.80;99.90
5834;DHT22;2943;48.012;10.968;2022-12-29T11:36:52;9.70;99.90
5834;DHT22;2943;48.012;10.968;2022-12-29T11:39:34;9.80;99.90
5834;DHT22;2943;48.012;10.968;2022-12-29T11:42:04;9.80;99.90
5834;DHT22;2943;48.012;10.968;2022-12-29T11:44:37;9.80;99.90
5834;DHT22;2943;48.012;10.968;2022-12-29T11:47:11;9.80;99.90
5834;DHT22;2943;48.012;10.968;2022-12-29T11:49:38;9.80;99.90
5834;DHT22;2943;48.012;10.968;2022-12-29T11:52:06;9.90;99.90
5834;DHT22;2943;48.012;10.968;2022-12-29T11:54:37;10.00;99.90
5834;DHT22;2943;48.012;10.968;2022-12-29T11:57:13;10.10;99.90
5834;DHT22;2943;48.012;10.968;2022-12-29T11:59:49;10.10;99.90
5834;DHT22;2943;48.012;10.968;2022-12-29T12:02:39;10.10;99.90
5834;DHT22;2943;48.012;10.968;2022-12-29T12:05:24;10.20;99.90
5834;DHT22;2943;48.012;10.968;2022-12-29T12:07:57;10.20;99.90
5834;DHT22;2943;48.012;10.968;2022-12-29T12:10:33;10.20;99.90
5834;DHT22;2943;48.012;10.968;2022-12-29T12:13:11;10.30;99.90
5834;DHT22;2943;48.012;10.968;2022-12-29T12:15:47;10.30;99.90
5834;DHT22;2943;48.012;10.968;2022-12-29T12:18:19;10.50;99.90
5834;DHT22;2943;48.012;10.968;2022-12-29T12:20:53;10.60;99.90
5834;DHT22;2943;48.012;10.968;2022-12-29T12:23:41;10.60;99.90
5834;DHT22;2943;48.012;10.968;2022-12-29T12:26:15;10.80;99.90
5834;DHT22;2943;48.012;10.968;2022-12-29T12:28:48;10.80;99.90
5834;DHT22;2943;48.012;10.968;2022-12-29T12:31:22;10.90;99.90
5834;DHT22;2943;48.012;10.968;2022-12-29T12:33:54;10.90;99.90
5834;DHT22;2943;48.012;10.968;2022-12-29T12:36:46;11.00;99.90
5834;DHT22;2943;48.012;10.968;2022-12-29T12:39:23;11.00;99.90
5834;DHT22;2943;48.012;10.968;2022-12-29T12:42:03;11.10;99.90
5834;DHT22;2943;48.012;10.968;2022-12-29T12:44:36;11.10;99.90
5834;DHT22;2943;48.012;10.968;2022-12-29T12:47:18;11.20;99.90
5834;DHT22;2943;48.012;10.968;2022-12-29T12:50:12;11.20;99.90
5834;DHT22;2943;48.012;10.968;2022-12-29T12:52:54;11.20;99.90
5834;DHT22;2943;48.012;10.968;2022-12-29T12:55:34;11.30;99.90
5834;DHT22;2943;48.012;10.968;2022-12-29T12:58:13;11.30;99.90
5834;DHT22;2943;48.012;10.968;2022-12-29T13:00:56;11.40;99.90
5834;DHT22;2943;48.012;10.968;2022-12-29T13:03:35;11.40;99.90
5834;DHT22;2943;48.012;10.968;2022-12-29T13:06:21;11.50;99.90
5834;DHT22;2943;48.012;10.968;2022-12-29T13:09:17;11.50;99.90
5834;DHT22;2943;48.012;10.968;2022-12-29T13:12:01;11.50;99.90
5834;DHT22;2943;48.012;10.968;2022-12-29T13:14:40;11.50;99.90
5834;DHT22;2943;48.012;10.968;2022-12-29T13:17:15;11.50;99.90
5834;DHT22;2943;48.012;10.968;2022-12-29T13:19:47;11.50;99.90
5834;DHT22;2943;48.012;10.968;2022-12-29T13:22:22;11.50;99.90
5834;DHT22;2943;48.012;10.968;2022-12-29T13:25:02;11.50;99.90
5834;DHT22;2943;48.012;10.968;2022-12-29T13:27:35;11.50;99.90
5834;DHT22;2943;48.012;10.968;2022-12-29T13:30:10;11.50;99.90
5834;DHT22;2943;48.012;10.968;2022-12-29T13:32:49;11.50;99.90
5834;DHT22;2943;48.012;10.968;2022-12-29T13:35:28;11.40;99.90
5834;DHT22;2943;48.012;10.968;2022-12-29T13:38:00;11.40;99.90
5834;DHT22;2943;48.012;10.968;2022-12-29T13:40:32;11.40;99.90
5834;DHT22;2943;48.012;10.968;2022-12-29T13:43:01;11.40;99.90
5834;DHT22;2943;48.012;10.968;2022-12-29T13:45:31;11.40;99.90
5834;DHT22;2943;48.012;10.968;2022-12-29T13:48:03;11.40;99.90
5834;DHT22;2943;48.012;10.968;2022-12-29T13:50:35;11.30;99.90
5834;DHT22;2943;48.012;10.968;2022-12-29T13:53:10;11.30;99.90
5834;DHT22;2943;48.012;10.968;2022-12-29T13:55:40;11.30;99.90
5834;DHT22;2943;48.012;10.968;2022-12-29T13:58:17;11.30;99.90
5834;DHT22;2943;48.012;10.968;2022-12-29T14:00:59;11.20;99.90
5834;DHT22;2943;48.012;10.968;2022-12-29T14:03:45;11.20;99.90
5834;DHT22;2943;48.012;10.968;2022-12-29T14:06:22;11.20;99.90
5834;DHT22;2943;48.012;10.968;2022-12-29T14:08:52;11.10;99.90
5834;DHT22;2943;48.012;10.968;2022-12-29T14:11:22;11.10;99.90
5834;DHT22;2943;48.012;10.968;2022-12-29T14:13:51;11.10;99.90
5834;DHT22;2943;48.012;10.968;2022-12-29T14:16:29;11.00;99.90
5834;DHT22;2943;48.012;10.968;2022-12-29T14:19:03;11.10;99.90
5834;DHT22;2943;48.012;10.968;2022-12-29T14:21:32;11.00;99.90
5834;DHT22;2943;48.012;10.968;2022-12-29T14:27:43;11.00;99.90
5834;DHT22;2943;48.012;10.968;2022-12-29T14:30:49;11.00;99.90
5834;DHT22;2943;48.012;10.968;2022-12-29T14:33:19;10.90;99.90
5834;DHT22;2943;48.012;10.968;2022-12-29T14:35:48;10.90;99.90
5834;DHT22;2943;48.012;10.968;2022-12-29T14:38:29;10.90;99.90
5834;DHT22;2943;48.012;10.968;2022-12-29T14:41:16;10.80;99.90
5834;DHT22;2943;48.012;10.968;2022-12-29T14:43:53;10.80;99.90
5834;DHT22;2943;48.012;10.968;2022-12-29T14:46:20;10.80;99.90
5834;DHT22;2943;48.012;10.968;2022-12-29T14:48:55;10.80;99.90
5834;DHT22;2943;48.012;10.968;2022-12-29T14:51:32;10.80;99.90
5834;DHT22;2943;48.012;10.968;2022-12-29T15:00:16;10.60;99.90
5834;DHT22;2943;48.012;10.968;2022-12-29T15:02:46;10.60;99.90
5834;DHT22;2943;48.012;10.968;2022-12-29T15:05:33;10.50;99.90
5834;DHT22;2943;48.012;10.968;2022-12-29T15:08:02;10.50;99.90
5834;DHT22;2943;48.012;10.968;2022-12-29T15:10:36;10.50;99.90
5834;DHT22;2943;48.012;10.968;2022-12-29T15:13:05;10.40;99.90
5834;DHT22;2943;48.012;10.968;2022-12-29T15:15:37;10.50;99.90
5834;DHT22;2943;48.012;10.968;2022-12-29T15:18:24;10.40;99.90
5834;DHT22;2943;48.012;10.968;2022-12-29T15:20:56;10.40;99.90
5834;DHT22;2943;48.012;10.968;2022-12-29T15:23:33;10.30;99.90
5834;DHT22;2943;48.012;10.968;2022-12-29T15:26:01;10.30;99.90
5834;DHT22;2943;48.012;10.968;2022-12-29T15:28:37;10.30;99.90
5834;DHT22;2943;48.012;10.968;2022-12-29T15:31:06;10.20;99.90
5834;DHT22;2943;48.012;10.968;2022-12-29T15:33:38;10.20;99.90
5834;DHT22;2943;48.012;10.968;2022-12-29T15:36:11;10.20;99.90
5834;DHT22;2943;48.012;10.968;2022-12-29T15:38:38;10.20;99.90
5834;DHT22;2943;48.012;10.968;2022-12-29T15:41:14;10.20;99.90
5834;DHT22;2943;48.012;10.968;2022-12-29T15:43:52;10.20;99.90
5834;DHT22;2943;48.012;10.968;2022-12-29T15:46:20;10.10;99.90
5834;DHT22;2943;48.012;10.968;2022-12-29T15:48:46;10.10;99.90
5834;DHT22;2943;48.012;10.968;2022-12-29T15:51:25;10.10;99.90
5834;DHT22;2943;48.012;10.968;2022-12-29T15:53:54;10.00;99.90
5834;DHT22;2943;48.012;10.968;2022-12-29T15:56:21;10.10;99.90
5834;DHT22;2943;48.012;10.968;2022-12-29T15:58:50;10.00;99.90
5834;DHT22;2943;48.012;10.968;2022-12-29T16:01:18;10.00;99.90
5834;DHT22;2943;48.012;10.968;2022-12-29T16:03:46;10.00;99.90
5834;DHT22;2943;48.012;10.968;2022-12-29T16:06:30;10.00;99.90
5834;DHT22;2943;48.012;10.968;2022-12-29T16:08:59;10.00;99.90
5834;DHT22;2943;48.012;10.968;2022-12-29T16:11:30;10.00;99.90
5834;DHT22;2943;48.012;10.968;2022-12-29T16:13:58;10.00;99.90
5834;DHT22;2943;48.012;10.968;2022-12-29T16:16:27;10.00;99.90
5834;DHT22;2943;48.012;10.968;2022-12-29T16:18:55;9.90;99.90
5834;DHT22;2943;48.012;10.968;2022-12-29T16:21:27;9.90;99.90
5834;DHT22;2943;48.012;10.968;2022-12-29T16:23:58;9.90;99.90
5834;DHT22;2943;48.012;10.968;2022-12-29T16:26:26;9.90;99.90
5834;DHT22;2943;48.012;10.968;2022-12-29T16:28:56;9.90;99.90
5834;DHT22;2943;48.012;10.968;2022-12-29T16:31:24;9.80;99.90
5834;DHT22;2943;48.012;10.968;2022-12-29T16:33:54;9.80;99.90
5834;DHT22;2943;48.012;10.968;2022-12-29T16:36:28;9.80;99.90
5834;DHT22;2943;48.012;10.968;2022-12-29T16:39:16;9.70;99.90
5834;DHT22;2943;48.012;10.968;2022-12-29T16:41:47;9.80;99.90
5834;DHT22;2943;48.012;10.968;2022-12-29T16:44:18;9.70;99.90
5834;DHT22;2943;48.012;10.968;2022-12-29T16:46:58;9.70;99.90
5834;DHT22;2943;48.012;10.968;2022-12-29T16:49:26;9.70;99.90
5834;DHT22;2943;48.012;10.968;2022-12-29T16:51:55;9.70;99.90
5834;DHT22;2943;48.012;10.968;2022-12-29T16:54:24;9.70;99.90
5834;DHT22;2943;48.012;10.968;2022-12-29T16:56:52;9.70;99.90
5834;DHT22;2943;48.012;10.968;2022-12-29T16:59:27;9.60;99.90
5834;DHT22;2943;48.012;10.968;2022-12-29T17:01:58;9.60;99.90
5834;DHT22;2943;48.012;10.968;2022-12-29T17:04:26;9.70;99.90
5834;DHT22;2943;48.012;10.968;2022-12-29T17:06:57;9.60;99.90
5834;DHT22;2943;48.012;10.968;2022-12-29T17:09:25;9.60;99.90
5834;DHT22;2943;48.012;10.968;2022-12-29T17:11:53;9.50;99.90